createdAt,value
2019-04-21T00:02:05.650Z,101457.66
2019-04-21T00:04:46.785Z,101454.23
2019-04-21T00:07:29.696Z,101457.59
2019-04-21T00:09:58.213Z,101454.79
2019-04-21T00:12:22.781Z,101452.47
2019-04-21T00:14:46.279Z,101452.51
2019-04-21T00:17:13.195Z,101445.19
2019-04-21T00:19:46.002Z,101446.39
2019-04-21T00:22:29.340Z,101446.60
2019-04-21T00:25:04.056Z,101442.03
2019-04-21T00:27:33.737Z,101440.87
2019-04-21T00:30:05.929Z,101439.84
2019-04-21T00:32:29.233Z,101436.25
2019-04-21T00:34:53.460Z,101432.11
2019-04-21T00:37:26.789Z,101431.52
2019-04-21T00:40:09.460Z,101434.52
2019-04-21T00:42:34.537Z,101423.78
2019-04-21T00:45:01.787Z,101422.69
2019-04-21T00:48:00.905Z,101418.42
2019-04-21T00:50:17.947Z,101415.67
2019-04-21T00:52:56.242Z,101413.48
2019-04-21T00:55:33.958Z,101411.20
2019-04-21T00:58:00.076Z,101407.82
2019-04-21T01:02:58.856Z,101409.95
2019-04-21T01:05:33.784Z,101404.16
2019-04-21T01:07:56.208Z,101405.31
2019-04-21T01:10:17.471Z,101400.45
2019-04-21T01:12:56.322Z,101404.75
2019-04-21T01:18:00.502Z,101399.30
2019-04-21T01:20:16.837Z,101404.55
2019-04-21T01:22:39.272Z,101402.01
2019-04-21T01:25:17.508Z,101394.44
2019-04-21T01:27:56.430Z,101391.03
2019-04-21T01:30:29.598Z,101386.48
2019-04-21T01:33:00.080Z,101380.84
2019-04-21T01:35:38.201Z,101379.72
2019-04-21T01:38:01.897Z,101380.14
2019-04-21T01:43:03.579Z,101374.06
2019-04-21T01:45:35.538Z,101372.85
2019-04-21T01:48:02.495Z,101374.03
2019-04-21T01:50:34.559Z,101374.45
2019-04-21T01:53:17.524Z,101376.25
2019-04-21T01:56:11.623Z,101377.31
2019-04-21T01:58:38.041Z,101370.13
2019-04-21T02:01:15.953Z,101366.39
2019-04-21T02:03:52.703Z,101369.23
2019-04-21T02:06:23.667Z,101370.01
2019-04-21T02:08:48.814Z,101374.09
2019-04-21T02:11:26.144Z,101374.70
2019-04-21T02:13:59.184Z,101369.02
2019-04-21T02:16:24.880Z,101366.90
2019-04-21T02:18:49.456Z,101361.02
2019-04-21T02:21:17.814Z,101363.61
2019-04-21T02:24:11.751Z,101365.55
2019-04-21T02:26:22.625Z,101365.04
2019-04-21T02:28:56.037Z,101354.30
2019-04-21T02:31:40.456Z,101356.89
2019-04-21T02:41:45.613Z,101356.20
2019-04-21T02:44:08.331Z,101349.28
2019-04-21T02:46:40.097Z,101350.36
2019-04-21T02:49:17.228Z,101348.62
2019-04-21T02:56:43.871Z,101339.98
2019-04-21T02:59:15.305Z,101343.12
2019-04-21T03:04:34.619Z,101334.39
2019-04-21T03:12:20.636Z,101330.38
2019-04-21T03:20:14.831Z,101318.70
2019-04-21T03:27:46.543Z,101312.30
2019-04-21T03:37:39.766Z,101312.09
2019-04-21T03:42:34.338Z,101309.12
2019-04-21T03:44:55.474Z,101314.34
2019-04-21T03:50:05.244Z,101307.50
2019-04-21T04:00:42.526Z,101303.58
2019-04-21T04:03:35.744Z,101305.78
2019-04-21T04:08:52.554Z,101304.42
2019-04-21T04:11:19.790Z,101304.10
2019-04-21T04:13:53.719Z,101304.25
2019-04-21T04:16:10.165Z,101303.56
2019-04-21T04:18:46.617Z,101298.47
2019-04-21T04:21:24.745Z,101294.15
2019-04-21T04:23:47.179Z,101297.41
2019-04-21T04:31:26.081Z,101299.06
2019-04-21T04:33:48.337Z,101297.09
2019-04-21T04:36:31.917Z,101294.03
2019-04-21T04:41:30.478Z,101299.13
2019-04-21T04:43:57.278Z,101300.48
2019-04-21T04:48:51.385Z,101291.27
2019-04-21T04:51:36.702Z,101295.76
2019-04-21T04:53:47.410Z,101293.05
2019-04-21T04:56:38.777Z,101288.75
2019-04-21T05:06:42.695Z,101293.53
2019-04-21T05:09:11.007Z,101286.30
2019-04-21T05:14:18.384Z,101286.75
2019-04-21T05:19:10.494Z,101289.34
2019-04-21T05:21:37.604Z,101282.20
2019-04-21T05:23:55.940Z,101281.50
2019-04-21T05:26:23.400Z,101285.11
2019-04-21T05:28:50.964Z,101282.09
2019-04-21T05:32:04.985Z,101283.27
2019-04-21T05:34:30.582Z,101287.57
2019-04-21T05:37:08.850Z,101278.77
2019-04-21T05:39:43.480Z,101278.63
2019-04-21T05:42:07.808Z,101276.52
2019-04-21T05:47:26.523Z,101268.36
2019-04-21T05:49:55.657Z,101267.81
2019-04-21T05:52:22.578Z,101271.98
2019-04-21T05:55:01.253Z,101268.52
2019-04-21T05:57:31.065Z,101264.94
2019-04-21T06:00:01.233Z,101262.81
2019-04-21T06:02:29.297Z,101267.09
2019-04-21T06:07:46.137Z,101258.53
2019-04-21T06:12:36.113Z,101257.72
2019-04-21T06:15:26.585Z,101252.77
2019-04-21T06:17:35.068Z,101243.59
2019-04-21T06:20:07.856Z,101241.15
2019-04-21T06:22:33.289Z,101239.20
2019-04-21T06:25:31.187Z,101240.23
2019-04-21T06:27:50.991Z,101239.45
2019-04-21T06:30:03.314Z,101235.00
2019-04-21T06:32:46.850Z,101230.84
2019-04-21T06:38:01.440Z,101223.95
2019-04-21T06:43:15.679Z,101222.87
2019-04-21T06:45:36.570Z,101219.31
2019-04-21T06:48:05.982Z,101223.29
2019-04-21T06:50:30.199Z,101217.36
2019-04-21T06:53:06.036Z,101208.73
2019-04-21T06:55:32.329Z,101206.48
2019-04-21T06:58:00.685Z,101206.91
2019-04-21T07:00:34.822Z,101201.53
2019-04-21T07:03:14.158Z,101203.48
2019-04-21T07:05:35.871Z,101195.09
2019-04-21T07:08:23.238Z,101196.06
2019-04-21T07:10:31.819Z,101201.10
2019-04-21T07:13:03.497Z,101188.91
2019-04-21T07:15:37.004Z,101192.21
2019-04-21T07:18:04.384Z,101189.05
2019-04-21T07:20:36.751Z,101188.83
2019-04-21T07:23:11.948Z,101194.27
2019-04-21T07:25:39.118Z,101198.94
2019-04-21T07:28:10.558Z,101187.92
2019-04-21T07:31:00.628Z,101181.97
2019-04-21T07:33:37.680Z,101181.48
2019-04-21T07:35:37.709Z,101174.10
2019-04-21T07:38:10.006Z,101177.31
2019-04-21T07:40:35.383Z,101180.23
2019-04-21T07:43:09.318Z,101182.80
2019-04-21T07:45:35.158Z,101173.80
2019-04-21T07:48:21.632Z,101174.47
2019-04-21T07:50:52.021Z,101165.13
2019-04-21T07:53:36.490Z,101164.05
2019-04-21T07:55:39.241Z,101153.62
2019-04-21T07:58:31.775Z,101157.58
2019-04-21T08:08:26.581Z,101156.45
2019-04-21T08:10:57.277Z,101151.59
2019-04-21T08:13:39.975Z,101154.14
2019-04-21T08:16:08.675Z,101148.94
2019-04-21T08:18:37.781Z,101144.43
2019-04-21T08:21:02.683Z,101139.73
2019-04-21T08:23:32.882Z,101139.13
2019-04-21T08:26:06.092Z,101129.78
2019-04-21T08:31:09.549Z,101136.79
2019-04-21T08:33:38.263Z,101130.19
2019-04-21T08:38:38.805Z,101131.72
2019-04-21T08:41:11.088Z,101128.78
2019-04-21T08:43:43.159Z,101116.59
2019-04-21T08:46:05.425Z,101111.94
2019-04-21T08:48:40.425Z,101104.16
2019-04-21T08:51:24.536Z,101103.40
2019-04-21T08:53:41.066Z,101102.98
2019-04-21T08:56:34.550Z,101095.55
2019-04-21T08:59:26.815Z,101099.14
2019-04-21T09:02:23.516Z,101094.70
2019-04-21T09:04:52.851Z,101090.02
2019-04-21T09:07:28.759Z,101085.33
2019-04-21T09:09:54.756Z,101083.39
2019-04-21T09:12:24.399Z,101083.39
2019-04-21T09:14:50.500Z,101073.36
2019-04-21T09:17:14.845Z,101064.97
2019-04-21T09:20:13.932Z,101067.98
2019-04-21T09:22:25.559Z,101060.53
2019-04-21T09:24:51.900Z,101049.93
2019-04-21T09:27:21.824Z,101050.70
2019-04-21T09:29:39.319Z,101037.14
2019-04-21T09:32:12.397Z,101040.69
2019-04-21T09:34:40.441Z,101039.56
2019-04-21T09:37:19.012Z,101031.19
2019-04-21T09:39:40.995Z,101027.06
2019-04-21T09:42:08.858Z,101026.70
2019-04-21T09:44:40.938Z,101019.15
2019-04-21T09:47:09.221Z,101011.34
2019-04-21T09:49:40.087Z,101013.05
2019-04-21T09:52:18.554Z,101006.59
2019-04-21T09:54:49.359Z,101012.75
2019-04-21T09:57:23.983Z,101005.53
2019-04-21T09:59:47.554Z,101001.94
2019-04-21T10:02:18.218Z,101001.84
2019-04-21T10:04:42.446Z,100991.83
2019-04-21T10:07:22.470Z,100990.81
2019-04-21T10:09:41.705Z,100992.27
2019-04-21T10:12:10.399Z,100986.35
2019-04-21T10:14:39.131Z,100978.63
2019-04-21T10:17:27.577Z,100984.64
2019-04-21T10:19:56.449Z,100975.72
2019-04-21T10:22:26.593Z,100973.91
2019-04-21T10:24:56.382Z,100967.19
2019-04-21T10:27:25.494Z,100963.16
2019-04-21T10:29:55.995Z,100957.20
2019-04-21T10:32:25.401Z,100957.90
2019-04-21T10:34:55.130Z,100953.30
2019-04-21T10:37:36.548Z,100950.43
2019-04-21T10:39:54.229Z,100945.57
2019-04-21T10:42:23.697Z,100945.77
2019-04-21T10:44:52.716Z,100938.98
2019-04-21T10:47:22.798Z,100937.52
2019-04-21T10:49:52.744Z,100929.61
2019-04-21T10:52:30.964Z,100930.42
2019-04-21T10:55:20.868Z,100932.79
2019-04-21T10:57:31.086Z,100917.81
2019-04-21T11:00:01.355Z,100915.37
2019-04-21T11:02:46.478Z,100915.70
2019-04-21T11:05:16.482Z,100905.47
2019-04-21T11:08:07.303Z,100909.36
2019-04-21T11:10:25.705Z,100911.75
2019-04-21T11:12:54.751Z,100899.41
2019-04-21T11:15:23.430Z,100903.05
2019-04-21T11:17:52.383Z,100895.47
2019-04-21T11:20:22.594Z,100897.22
2019-04-21T11:22:51.599Z,100891.05
2019-04-21T11:25:20.343Z,100889.18
2019-04-21T11:27:49.139Z,100882.75
2019-04-21T11:30:20.555Z,100882.77
2019-04-21T11:32:49.788Z,100881.46
2019-04-21T11:35:19.774Z,100869.12
2019-04-21T11:37:48.491Z,100870.72
2019-04-21T11:40:19.808Z,100871.78
2019-04-21T11:42:48.163Z,100859.89
2019-04-21T11:45:28.399Z,100855.36
2019-04-21T11:48:14.440Z,100857.36
2019-04-21T11:50:43.444Z,100854.12
2019-04-21T11:53:12.736Z,100849.34
2019-04-21T11:55:44.811Z,100851.25
2019-04-21T11:58:12.073Z,100846.95
2019-04-21T12:00:42.108Z,100844.55
2019-04-21T12:03:14.839Z,100853.70
2019-04-21T12:05:41.496Z,100848.45
2019-04-21T12:08:21.178Z,100849.17
2019-04-21T12:10:41.833Z,100844.08
2019-04-21T12:13:11.994Z,100838.69
2019-04-21T12:15:40.995Z,100827.27
2019-04-21T12:18:10.124Z,100827.48
2019-04-21T12:20:39.693Z,100817.52
2019-04-21T12:23:08.825Z,100811.30
2019-04-21T12:25:40.949Z,100812.60
2019-04-21T12:28:10.109Z,100813.80
2019-04-21T12:30:39.844Z,100811.34
2019-04-21T12:33:12.222Z,100809.95
2019-04-21T12:35:40.079Z,100800.44
2019-04-21T12:38:08.909Z,100803.54
2019-04-21T12:40:38.833Z,100800.38
2019-04-21T12:43:08.476Z,100792.68
2019-04-21T12:45:37.870Z,100785.17
2019-04-21T12:48:06.620Z,100783.84
2019-04-21T12:50:36.007Z,100775.19
2019-04-21T12:53:05.350Z,100767.52
2019-04-21T12:55:37.427Z,100765.61
2019-04-21T12:58:05.551Z,100764.00
2019-04-21T13:00:34.263Z,100762.15
2019-04-21T13:03:03.649Z,100751.20
2019-04-21T13:05:33.766Z,100750.34
2019-04-21T13:08:03.782Z,100740.24
2019-04-21T13:10:33.943Z,100742.25
2019-04-21T13:13:03.838Z,100733.72
2019-04-21T13:15:33.635Z,100724.77
2019-04-21T13:18:02.730Z,100722.70
2019-04-21T13:20:31.422Z,100714.61
2019-04-21T13:23:00.112Z,100709.69
2019-04-21T13:25:29.739Z,100707.98
2019-04-21T13:27:58.698Z,100710.59
2019-04-21T13:30:28.401Z,100701.92
2019-04-21T13:32:58.642Z,100691.70
2019-04-21T13:35:28.878Z,100696.56
2019-04-21T13:37:58.389Z,100687.17
2019-04-21T13:41:12.206Z,100674.89
2019-04-21T13:43:27.229Z,100678.02
2019-04-21T13:45:57.390Z,100676.31
2019-04-21T13:48:26.676Z,100675.38
2019-04-21T13:50:55.405Z,100667.36
2019-04-21T13:53:25.003Z,100668.52
2019-04-21T13:55:53.730Z,100662.47
2019-04-21T13:58:22.414Z,100659.28
2019-04-21T14:00:52.370Z,100658.68
2019-04-21T14:03:23.433Z,100654.48
2019-04-21T14:05:51.840Z,100654.98
2019-04-21T14:08:21.105Z,100651.39
2019-04-21T14:10:51.391Z,100651.41
2019-04-21T14:13:20.432Z,100636.50
2019-04-21T14:15:51.656Z,100639.97
2019-04-21T14:18:20.627Z,100641.61
2019-04-21T14:20:49.517Z,100629.37
2019-04-21T14:23:29.441Z,100631.23
2019-04-21T14:25:49.990Z,100630.81
2019-04-21T14:28:19.934Z,100623.48
2019-04-21T14:30:48.678Z,100619.64
2019-04-21T14:33:18.295Z,100621.64
2019-04-21T14:35:47.228Z,100617.08
2019-04-21T14:38:16.549Z,100608.38
2019-04-21T14:40:46.140Z,100607.77
2019-04-21T14:43:16.460Z,100601.49
2019-04-21T14:45:56.821Z,100601.09
2019-04-21T14:48:57.227Z,100597.28
2019-04-21T14:51:37.044Z,100587.34
2019-04-21T14:54:14.052Z,100592.08
2019-04-21T14:56:44.981Z,100587.82
2019-04-21T14:59:15.098Z,100590.85
2019-04-21T15:01:44.154Z,100581.64
2019-04-21T15:04:14.395Z,100578.43
2019-04-21T15:06:43.363Z,100579.95
2019-04-21T15:09:13.237Z,100576.40
2019-04-21T15:11:42.233Z,100581.73
2019-04-21T15:14:11.706Z,100570.48
2019-04-21T15:16:40.882Z,100569.36
2019-04-21T15:19:10.811Z,100571.35
2019-04-21T15:21:40.510Z,100576.39
2019-04-21T15:24:09.272Z,100572.09
2019-04-21T15:26:38.016Z,100559.05
2019-04-21T15:29:06.857Z,100558.84
2019-04-21T15:31:38.295Z,100554.08
2019-04-21T15:34:07.311Z,100555.48
2019-04-21T15:36:37.703Z,100545.63
2019-04-21T15:39:09.852Z,100547.66
2019-04-21T15:41:38.717Z,100546.51
2019-04-21T15:44:08.282Z,100540.14
2019-04-21T15:46:39.904Z,100539.86
2019-04-21T15:49:09.323Z,100540.92
2019-04-21T15:51:38.361Z,100535.36
2019-04-21T15:54:08.724Z,100533.08
2019-04-21T15:56:42.681Z,100531.78
2019-04-21T15:59:24.426Z,100527.08
2019-04-21T16:02:00.918Z,100531.03
2019-04-21T16:04:30.704Z,100532.48
2019-04-21T16:07:01.663Z,100527.14
2019-04-21T16:09:32.688Z,100529.73
2019-04-21T16:12:01.894Z,100526.96
2019-04-21T16:14:32.331Z,100529.86
2019-04-21T16:17:01.317Z,100520.67
2019-04-21T16:19:31.246Z,100517.55
2019-04-21T16:22:01.114Z,100514.23
2019-04-21T16:24:30.878Z,100506.50
2019-04-21T16:27:03.506Z,100509.81
2019-04-21T16:29:31.211Z,100508.51
2019-04-21T16:32:01.589Z,100514.80
2019-04-21T16:34:42.790Z,100509.04
2019-04-21T16:37:01.506Z,100502.17
2019-04-21T16:39:31.525Z,100496.59
2019-04-21T16:42:00.596Z,100498.81
2019-04-21T16:44:29.499Z,100498.00
2019-04-21T16:46:59.300Z,100494.34
2019-04-21T16:49:29.501Z,100494.80
2019-04-21T16:52:30.050Z,100490.96
2019-04-21T16:55:11.254Z,100491.14
2019-04-21T16:57:43.822Z,100490.73
2019-04-21T17:00:30.164Z,100480.44
2019-04-21T17:02:50.395Z,100479.19
2019-04-21T17:05:20.399Z,100485.09
2019-04-21T17:07:49.278Z,100488.65
2019-04-21T17:10:18.053Z,100476.08
2019-04-21T17:12:47.988Z,100485.23
2019-04-21T17:15:34.090Z,100478.38
2019-04-21T17:18:05.626Z,100481.02
2019-04-21T17:20:33.283Z,100475.61
2019-04-21T17:22:49.486Z,100477.55
2019-04-21T17:25:21.534Z,100476.80
2019-04-21T17:27:49.091Z,100475.48
2019-04-21T17:30:18.809Z,100469.25
2019-04-21T17:32:49.792Z,100469.98
2019-04-21T17:35:19.804Z,100472.02
2019-04-21T17:37:50.013Z,100463.20
2019-04-21T17:40:24.079Z,100474.47
2019-04-21T17:43:01.598Z,100473.39
2019-04-21T17:45:23.919Z,100477.36
2019-04-21T17:47:59.840Z,100473.06
2019-04-21T17:50:33.527Z,100474.23
2019-04-21T17:53:10.798Z,100468.84
2019-04-21T17:55:40.596Z,100469.88
2019-04-21T17:58:21.937Z,100466.38
2019-04-21T18:01:10.138Z,100477.09
2019-04-21T18:03:40.638Z,100478.83
2019-04-21T18:05:56.303Z,100485.69
2019-04-21T18:08:29.533Z,100483.23
2019-04-21T18:10:54.336Z,100485.10
2019-04-21T18:13:17.596Z,100492.90
2019-04-21T18:15:58.631Z,100489.29
2019-04-21T18:18:14.489Z,100496.59
2019-04-21T18:20:46.155Z,100496.09
2019-04-21T18:23:40.846Z,100500.09
2019-04-21T18:26:07.661Z,100503.05
2019-04-21T18:28:30.899Z,100500.58
2019-04-21T18:31:06.875Z,100510.93
2019-04-21T18:33:40.501Z,100497.31
2019-04-21T18:36:21.299Z,100506.05
2019-04-21T18:39:21.883Z,100510.73
2019-04-21T18:41:42.716Z,100508.06
2019-04-21T18:44:36.477Z,100511.56
2019-04-21T18:47:19.902Z,100514.23
2019-04-21T18:49:54.495Z,100508.27
2019-04-21T18:52:45.312Z,100518.02
2019-04-21T18:55:09.901Z,100519.21
2019-04-21T18:57:37.395Z,100513.55
2019-04-21T18:59:59.450Z,100520.12
2019-04-21T19:02:36.811Z,100520.98
2019-04-21T19:05:03.107Z,100522.85
2019-04-21T19:07:45.420Z,100525.80
2019-04-21T19:13:28.520Z,100529.03
2019-04-21T19:15:18.080Z,100529.75
2019-04-21T19:18:16.493Z,100531.55
2019-04-21T19:22:47.270Z,100541.10
2019-04-21T19:25:20.909Z,100537.28
2019-04-21T19:27:49.155Z,100536.09
2019-04-21T19:30:28.761Z,100531.61
2019-04-21T19:32:54.441Z,100536.07
2019-04-21T19:35:07.102Z,100533.25
2019-04-21T19:37:46.414Z,100531.69
2019-04-21T19:40:25.233Z,100539.15
2019-04-21T19:42:50.314Z,100535.11
2019-04-21T19:45:24.288Z,100527.39
2019-04-21T19:47:53.208Z,100527.92
2019-04-21T19:50:30.950Z,100533.76
2019-04-21T19:52:49.754Z,100526.05
2019-04-21T19:55:09.790Z,100528.35
2019-04-21T19:57:38.914Z,100527.67
2019-04-21T20:00:10.108Z,100525.50
2019-04-21T20:02:40.220Z,100522.95
2019-04-21T20:05:14.673Z,100524.28
2019-04-21T20:08:01.339Z,100522.28
2019-04-21T20:10:44.581Z,100517.91
2019-04-21T20:13:02.889Z,100523.97
2019-04-21T20:15:35.849Z,100519.03
2019-04-21T20:17:53.066Z,100524.80
2019-04-21T20:20:13.273Z,100523.40
2019-04-21T20:22:45.409Z,100514.30
2019-04-21T20:25:17.464Z,100517.34
2019-04-21T20:27:54.550Z,100523.55
2019-04-21T20:30:34.711Z,100521.49
2019-04-21T20:33:05.909Z,100520.99
2019-04-21T20:35:48.575Z,100523.64
2019-04-21T20:38:05.153Z,100519.07
2019-04-21T20:40:30.927Z,100514.54
2019-04-21T20:43:11.308Z,100514.39
2019-04-21T20:45:40.282Z,100518.97
2019-04-21T20:47:54.114Z,100514.23
2019-04-21T20:50:35.379Z,100518.66
2019-04-21T20:53:11.107Z,100520.00
2019-04-21T20:55:37.043Z,100522.30
2019-04-21T20:58:04.226Z,100526.41
2019-04-21T21:00:54.553Z,100522.70
2019-04-21T21:03:13.525Z,100521.84
2019-04-21T21:05:37.083Z,100521.86
2019-04-21T21:08:18.044Z,100521.09
2019-04-21T21:10:38.611Z,100523.66
2019-04-21T21:13:24.412Z,100519.29
2019-04-21T21:16:01.904Z,100517.03
2019-04-21T21:18:26.904Z,100512.16
2019-04-21T21:20:49.799Z,100516.94
2019-04-21T21:23:11.523Z,100515.00
2019-04-21T21:25:51.000Z,100509.26
2019-04-21T21:28:10.137Z,100507.34
2019-04-21T21:30:43.101Z,100508.89
2019-04-21T21:33:16.939Z,100510.03
2019-04-21T21:35:42.457Z,100511.91
2019-04-21T21:38:19.969Z,100512.99
2019-04-21T21:40:45.517Z,100503.48
2019-04-21T21:43:08.184Z,100506.61
2019-04-21T21:45:40.044Z,100503.89
2019-04-21T21:48:21.928Z,100501.19
2019-04-21T21:50:45.708Z,100502.14
2019-04-21T21:53:12.756Z,100496.39
2019-04-21T21:55:35.895Z,100495.15
2019-04-21T21:58:07.614Z,100499.54
2019-04-21T22:00:41.891Z,100492.22
2019-04-21T22:03:16.271Z,100493.33
2019-04-21T22:05:48.226Z,100498.44
2019-04-21T22:08:08.337Z,100499.39
2019-04-21T22:10:37.078Z,100495.36
2019-04-21T22:13:09.633Z,100498.50
2019-04-21T22:15:37.564Z,100503.53
2019-04-21T22:18:25.807Z,100503.95
2019-04-21T22:20:55.203Z,100501.93
2019-04-21T22:23:13.403Z,100499.85
2019-04-21T22:25:41.637Z,100500.55
2019-04-21T22:28:09.475Z,100500.45
2019-04-21T22:30:42.900Z,100502.39
2019-04-21T22:33:12.116Z,100502.48
2019-04-21T22:35:46.297Z,100505.91
2019-04-21T22:38:24.659Z,100503.70
2019-04-21T22:40:51.890Z,100492.49
2019-04-21T22:43:21.694Z,100501.25
2019-04-21T22:45:41.291Z,100499.20
2019-04-21T22:48:14.049Z,100505.98
2019-04-21T22:50:40.749Z,100500.19
2019-04-21T22:53:10.605Z,100502.38
2019-04-21T22:55:40.918Z,100505.66
2019-04-21T22:58:09.770Z,100510.30
2019-04-21T23:00:44.664Z,100501.33
2019-04-21T23:03:13.791Z,100503.02
2019-04-21T23:05:42.998Z,100503.50
2019-04-21T23:08:11.045Z,100497.18
2019-04-21T23:10:41.477Z,100490.77
2019-04-21T23:13:17.778Z,100492.75
2019-04-21T23:15:46.116Z,100494.02
2019-04-21T23:18:26.011Z,100501.11
2019-04-21T23:20:58.798Z,100506.28
2019-04-21T23:23:38.405Z,100506.80
2019-04-21T23:26:01.031Z,100500.63
2019-04-21T23:28:36.655Z,100497.13
2019-04-21T23:31:00.786Z,100499.55
2019-04-21T23:33:16.389Z,100494.54
2019-04-21T23:35:47.809Z,100493.21
2019-04-21T23:38:16.482Z,100496.05
2019-04-21T23:40:51.688Z,100493.21
2019-04-21T23:43:20.792Z,100493.95
2019-04-21T23:45:46.973Z,100496.62
2019-04-21T23:48:31.579Z,100492.88
2019-04-21T23:50:54.848Z,100487.37
2019-04-21T23:53:17.414Z,100484.75
2019-04-21T23:55:47.409Z,100486.54
2019-04-21T23:58:22.195Z,100482.01
